createdAt,value
2023-05-03T00:02:24.406Z,2.57
2023-05-03T00:05:00.795Z,3.50
2023-05-03T00:07:28.245Z,2.33
2023-05-03T00:09:55.496Z,2.73
2023-05-03T00:12:23.516Z,2.70
2023-05-03T00:14:51.740Z,2.57
2023-05-03T00:17:19.578Z,3.03
2023-05-03T00:19:47.878Z,2.30
2023-05-03T00:22:18.409Z,2.90
2023-05-03T00:24:55.344Z,2.50
2023-05-03T00:27:26.357Z,2.90
2023-05-03T00:30:13.474Z,2.80
2023-05-03T00:32:44.625Z,3.53
2023-05-03T00:35:12.981Z,2.90
2023-05-03T00:37:41.100Z,3.40
2023-05-03T00:40:11.721Z,2.50
2023-05-03T00:45:20.642Z,3.13
2023-05-03T00:47:47.821Z,2.90
2023-05-03T00:50:16.469Z,2.70
2023-05-03T00:52:43.841Z,2.93
2023-05-03T00:55:11.201Z,2.70
2023-05-03T00:57:38.827Z,3.00
2023-05-03T01:00:07.901Z,3.00
2023-05-03T01:02:35.247Z,3.27
2023-05-03T01:05:02.674Z,2.80
2023-05-03T01:07:48.761Z,2.97
2023-05-03T01:10:23.574Z,3.17
2023-05-03T01:13:01.134Z,3.20
2023-05-03T01:15:28.315Z,3.17
2023-05-03T01:17:58.836Z,2.93
2023-05-03T01:20:28.304Z,3.70
2023-05-03T01:22:55.420Z,3.37
2023-05-03T01:25:22.687Z,3.07
2023-05-03T01:27:49.915Z,3.10
2023-05-03T01:30:17.107Z,3.70
2023-05-03T01:32:53.235Z,3.20
2023-05-03T01:35:37.344Z,3.17
2023-05-03T01:38:05.381Z,3.50
2023-05-03T01:40:34.116Z,3.20
2023-05-03T01:43:01.665Z,3.27
2023-05-03T01:45:29.071Z,3.60
2023-05-03T01:47:57.398Z,4.00
2023-05-03T01:50:24.682Z,3.40
2023-05-03T01:52:53.201Z,3.83
2023-05-03T01:55:20.322Z,3.83
2023-05-03T01:57:47.451Z,3.70
2023-05-03T02:00:15.042Z,3.67
2023-05-03T02:02:42.176Z,3.80
2023-05-03T02:05:10.732Z,4.10
2023-05-03T02:07:38.226Z,3.37
2023-05-03T02:10:06.388Z,3.40
2023-05-03T02:12:33.662Z,4.17
2023-05-03T02:15:01.112Z,3.73
2023-05-03T02:17:28.831Z,3.67
2023-05-03T02:19:56.084Z,3.77
2023-05-03T02:22:23.353Z,4.00
2023-05-03T02:24:50.491Z,4.00
2023-05-03T02:27:17.610Z,4.37
2023-05-03T02:29:44.804Z,4.43
2023-05-03T02:32:11.889Z,3.53
2023-05-03T02:34:39.496Z,4.60
2023-05-03T02:37:06.588Z,4.20
2023-05-03T02:39:33.738Z,4.80
2023-05-03T02:42:01.032Z,3.80
2023-05-03T02:44:31.333Z,4.27
2023-05-03T02:47:01.123Z,4.47
2023-05-03T02:49:28.359Z,4.50
2023-05-03T02:51:56.683Z,4.27
2023-05-03T02:54:24.222Z,4.70
2023-05-03T02:56:51.396Z,4.90
2023-05-03T02:59:18.521Z,4.53
2023-05-03T03:01:46.924Z,4.20
2023-05-03T03:04:14.242Z,4.60
2023-05-03T03:06:41.807Z,4.17
2023-05-03T03:09:09.041Z,4.13
2023-05-03T03:11:36.293Z,4.67
2023-05-03T03:14:03.458Z,5.63
2023-05-03T03:16:30.974Z,4.87
2023-05-03T03:18:58.170Z,4.60
2023-05-03T03:21:25.529Z,4.60
2023-05-03T03:23:52.685Z,4.67
2023-05-03T03:26:19.805Z,4.83
2023-05-03T03:28:46.865Z,4.60
2023-05-03T03:31:14.063Z,4.40
2023-05-03T03:33:41.151Z,4.67
2023-05-03T03:36:10.231Z,4.60
2023-05-03T03:38:37.300Z,4.50
2023-05-03T03:41:04.452Z,4.90
2023-05-03T03:43:31.535Z,5.10
2023-05-03T03:45:58.664Z,4.60
2023-05-03T03:48:25.783Z,4.93
2023-05-03T03:50:53.166Z,5.57
2023-05-03T03:53:20.263Z,5.20
2023-05-03T03:55:47.494Z,5.80
2023-05-03T03:58:14.607Z,5.07
2023-05-03T04:00:42.680Z,5.17
2023-05-03T04:03:10.104Z,4.97
2023-05-03T04:05:37.287Z,4.70
2023-05-03T04:08:04.430Z,5.17
2023-05-03T04:10:31.610Z,4.87
2023-05-03T04:12:58.853Z,5.30
2023-05-03T04:15:26.022Z,5.80
2023-05-03T04:17:53.173Z,5.40
2023-05-03T04:20:21.563Z,5.70
2023-05-03T04:22:48.873Z,6.60
2023-05-03T04:25:17.363Z,7.27
2023-05-03T04:27:45.532Z,6.33
2023-05-03T04:30:15.382Z,5.70
2023-05-03T04:32:43.107Z,6.77
2023-05-03T04:35:12.562Z,5.87
2023-05-03T04:37:43.365Z,4.87
2023-05-03T04:40:12.259Z,6.83
2023-05-03T04:42:39.722Z,5.53
2023-05-03T04:45:09.574Z,5.47
2023-05-03T04:47:37.178Z,5.30
2023-05-03T04:50:04.642Z,6.00
2023-05-03T04:52:32.049Z,5.60
2023-05-03T04:54:59.099Z,5.50
2023-05-03T04:57:26.299Z,5.83
2023-05-03T04:59:56.100Z,5.73
2023-05-03T05:02:23.244Z,5.60
2023-05-03T05:04:50.436Z,5.23
2023-05-03T05:07:17.972Z,5.60
2023-05-03T05:09:45.329Z,5.37
2023-05-03T05:12:12.484Z,6.23
2023-05-03T05:14:39.614Z,5.00
2023-05-03T05:17:06.905Z,5.77
2023-05-03T05:19:34.016Z,5.80
2023-05-03T05:22:01.552Z,6.03
2023-05-03T05:24:28.720Z,6.47
2023-05-03T05:26:55.887Z,7.17
2023-05-03T05:29:22.980Z,6.47
2023-05-03T05:35:00.029Z,6.30
2023-05-03T05:37:27.586Z,6.70
2023-05-03T05:39:54.837Z,6.40
2023-05-03T05:42:21.997Z,6.60
2023-05-03T05:44:49.123Z,6.13
2023-05-03T05:47:16.329Z,6.37
2023-05-03T05:49:43.761Z,6.27
2023-05-03T05:52:10.805Z,6.10
2023-05-03T05:54:37.947Z,5.80
2023-05-03T05:57:05.105Z,5.03
2023-05-03T05:59:32.338Z,4.83
2023-05-03T06:02:00.355Z,5.23
2023-05-03T06:04:27.789Z,4.03
2023-05-03T06:06:55.143Z,4.50
2023-05-03T06:09:25.080Z,4.00
2023-05-03T06:11:52.870Z,5.20
2023-05-03T06:14:20.813Z,4.10
2023-05-03T06:16:48.203Z,4.03
2023-05-03T06:19:15.618Z,3.60
2023-05-03T06:21:42.912Z,3.67
2023-05-03T06:24:10.012Z,3.63
2023-05-03T06:26:38.327Z,3.40
2023-05-03T06:29:05.443Z,3.50
2023-05-03T06:31:32.758Z,3.37
2023-05-03T06:33:59.933Z,3.03
2023-05-03T06:36:27.691Z,3.03
2023-05-03T06:38:55.572Z,3.80
2023-05-03T06:41:22.628Z,3.20
2023-05-03T06:43:49.678Z,2.60
2023-05-03T06:46:18.265Z,2.63
2023-05-03T06:48:46.879Z,2.73
2023-05-03T06:51:14.596Z,3.00
2023-05-03T06:53:41.664Z,2.47
2023-05-03T06:56:08.823Z,2.43
2023-05-03T06:58:35.914Z,2.30
2023-05-03T07:01:03.253Z,2.93
2023-05-03T07:03:30.472Z,2.80
2023-05-03T07:05:57.634Z,2.33
2023-05-03T07:08:24.866Z,4.60
2023-05-03T07:10:51.903Z,3.77
2023-05-03T07:13:19.087Z,2.90
2023-05-03T07:15:46.408Z,1.90
2023-05-03T07:18:13.637Z,2.33
2023-05-03T07:20:40.742Z,2.10
2023-05-03T07:23:07.798Z,2.40
2023-05-03T07:25:35.202Z,2.33
2023-05-03T07:28:03.278Z,2.23
2023-05-03T07:30:30.475Z,2.27
2023-05-03T07:32:57.986Z,2.07
2023-05-03T07:35:26.724Z,2.17
2023-05-03T07:37:53.844Z,2.20
2023-05-03T07:40:20.995Z,2.00
2023-05-03T07:42:48.195Z,2.10
2023-05-03T07:45:15.409Z,2.80
2023-05-03T07:47:44.951Z,3.00
2023-05-03T07:50:12.186Z,1.80
2023-05-03T07:52:42.275Z,1.63
2023-05-03T07:55:09.730Z,2.15
2023-05-03T07:57:36.915Z,2.03
2023-05-03T08:00:06.177Z,2.15
2023-05-03T08:02:33.509Z,2.13
2023-05-03T08:05:00.808Z,2.10
2023-05-03T08:07:28.745Z,2.20
2023-05-03T08:09:58.454Z,2.28
2023-05-03T08:12:30.781Z,2.50
2023-05-03T08:14:58.078Z,2.90
2023-05-03T08:17:25.147Z,2.70
2023-05-03T08:19:52.440Z,2.37
2023-05-03T08:22:19.535Z,1.87
2023-05-03T08:24:46.609Z,2.40
2023-05-03T08:27:13.780Z,2.33
2023-05-03T08:29:43.395Z,2.53
2023-05-03T08:32:10.834Z,2.33
2023-05-03T08:34:38.504Z,2.40
2023-05-03T08:37:07.358Z,2.33
2023-05-03T08:39:34.568Z,2.97
2023-05-03T08:42:06.932Z,2.17
2023-05-03T08:44:39.510Z,2.47
2023-05-03T08:47:07.260Z,2.90
2023-05-03T08:49:35.289Z,2.43
2023-05-03T08:52:03.454Z,2.70
2023-05-03T08:54:30.612Z,2.40
2023-05-03T08:56:57.745Z,2.33
2023-05-03T08:59:28.501Z,2.20
2023-05-03T09:01:56.035Z,2.07
2023-05-03T09:04:32.858Z,2.30
2023-05-03T09:07:10.068Z,2.40
2023-05-03T09:09:37.233Z,2.07
2023-05-03T09:12:04.765Z,2.77
2023-05-03T09:14:31.823Z,2.40
2023-05-03T09:17:13.922Z,2.20
2023-05-03T09:19:52.418Z,2.20
2023-05-03T09:22:19.614Z,2.23
2023-05-03T09:25:00.281Z,2.07
2023-05-03T09:27:27.817Z,2.73
2023-05-03T09:29:55.378Z,2.30
2023-05-03T09:32:22.947Z,2.60
2023-05-03T09:34:50.165Z,2.27
2023-05-03T09:37:17.412Z,2.60
2023-05-03T09:39:46.590Z,2.53
2023-05-03T09:42:15.105Z,2.00
2023-05-03T09:44:49.218Z,2.57
2023-05-03T09:47:16.583Z,2.07
2023-05-03T09:49:44.196Z,2.20
2023-05-03T09:52:11.605Z,2.57
2023-05-03T09:54:39.188Z,2.10
2023-05-03T09:57:07.473Z,2.20
2023-05-03T09:59:35.497Z,2.30
2023-05-03T10:02:07.453Z,2.53
2023-05-03T10:04:46.162Z,2.80
2023-05-03T10:07:15.052Z,2.53
2023-05-03T10:09:46.292Z,2.03
2023-05-03T10:12:20.223Z,2.33
2023-05-03T10:14:48.944Z,2.23
2023-05-03T10:17:43.560Z,2.53
2023-05-03T10:20:17.608Z,2.30
2023-05-03T10:23:03.481Z,2.10
2023-05-03T10:25:30.784Z,2.60
2023-05-03T10:28:03.883Z,2.20
2023-05-03T10:30:32.829Z,2.20
2023-05-03T10:33:00.758Z,2.47
2023-05-03T10:35:28.756Z,2.47
2023-05-03T10:37:56.966Z,2.30
2023-05-03T10:40:24.203Z,2.47
2023-05-03T10:42:52.561Z,2.40
2023-05-03T10:45:23.780Z,2.20
2023-05-03T10:48:09.662Z,2.13
2023-05-03T10:50:37.160Z,2.40
2023-05-03T10:53:04.256Z,2.70
2023-05-03T10:55:31.780Z,2.37
2023-05-03T10:57:59.526Z,2.20
2023-05-03T11:00:27.826Z,2.50
2023-05-03T11:03:04.073Z,3.20
2023-05-03T11:05:33.744Z,2.43
2023-05-03T11:08:09.994Z,2.70
2023-05-03T11:10:37.141Z,2.50
2023-05-03T11:13:04.291Z,2.63
2023-05-03T11:15:31.539Z,2.43
2023-05-03T11:17:58.661Z,2.90
2023-05-03T11:20:26.299Z,3.10
2023-05-03T11:22:53.433Z,3.20
2023-05-03T11:25:20.937Z,2.70
2023-05-03T11:27:48.084Z,2.70
2023-05-03T11:32:59.438Z,2.93
2023-05-03T11:35:27.052Z,2.87
2023-05-03T11:37:54.383Z,3.10
2023-05-03T11:40:21.881Z,2.83
2023-05-03T11:42:53.312Z,2.60
2023-05-03T11:45:25.462Z,3.00
2023-05-03T11:47:53.069Z,2.97
2023-05-03T11:50:27.027Z,3.30
2023-05-03T11:52:54.303Z,3.13
2023-05-03T11:55:22.536Z,3.07
2023-05-03T11:57:49.665Z,3.50
2023-05-03T12:00:17.640Z,3.60
2023-05-03T12:02:45.737Z,2.83
2023-05-03T12:05:14.202Z,2.80
2023-05-03T12:07:42.228Z,3.40
2023-05-03T12:10:19.454Z,3.20
2023-05-03T12:15:30.046Z,3.60
2023-05-03T12:21:30.294Z,3.67
2023-05-03T12:23:45.871Z,3.30
2023-05-03T12:26:14.981Z,3.43
2023-05-03T12:28:42.450Z,3.30
2023-05-03T12:36:24.862Z,4.23
2023-05-03T12:38:56.224Z,3.53
2023-05-03T12:42:04.610Z,3.40
2023-05-03T12:44:16.662Z,3.20
2023-05-03T12:46:45.509Z,3.57
2023-05-03T12:49:15.318Z,3.53
2023-05-03T12:51:43.149Z,3.60
2023-05-03T12:54:11.643Z,3.27
2023-05-03T12:56:40.730Z,3.33
2023-05-03T12:59:39.466Z,3.90
2023-05-03T13:06:59.472Z,4.47
2023-05-03T13:09:37.970Z,3.60
2023-05-03T13:12:17.329Z,3.10
2023-05-03T13:14:44.559Z,3.70
2023-05-03T13:17:13.204Z,3.80
2023-05-03T13:19:42.009Z,3.13
2023-05-03T13:22:09.159Z,3.27
2023-05-03T13:24:36.709Z,3.80
2023-05-03T13:27:04.783Z,4.00
2023-05-03T13:29:32.046Z,3.50
2023-05-03T13:31:59.122Z,3.67
2023-05-03T13:34:26.270Z,3.20
2023-05-03T13:36:53.348Z,4.10
2023-05-03T13:39:20.618Z,4.30
2023-05-03T13:41:48.296Z,3.63
2023-05-03T13:44:15.520Z,3.87
2023-05-03T13:46:43.479Z,3.23
2023-05-03T13:49:10.913Z,3.43
2023-05-03T13:51:38.109Z,3.73
2023-05-03T13:54:07.139Z,3.10
2023-05-03T13:56:34.810Z,4.27
2023-05-03T13:59:02.251Z,3.40
2023-05-03T14:01:29.662Z,3.40
2023-05-03T14:03:56.886Z,3.20
2023-05-03T14:06:24.329Z,3.30
2023-05-03T14:08:54.310Z,3.70
2023-05-03T14:11:28.403Z,3.57
2023-05-03T14:13:57.405Z,3.20
2023-05-03T14:16:36.385Z,3.90
2023-05-03T14:19:07.902Z,3.60
2023-05-03T14:21:35.127Z,3.63
2023-05-03T14:24:02.366Z,3.47
2023-05-03T14:26:29.653Z,3.90
2023-05-03T14:28:57.111Z,3.93
2023-05-03T14:31:24.262Z,3.33
2023-05-03T14:33:51.368Z,4.00
2023-05-03T14:36:18.790Z,4.03
2023-05-03T14:38:46.216Z,3.63
2023-05-03T14:41:13.493Z,3.57
2023-05-03T14:43:40.663Z,4.17
2023-05-03T14:46:09.784Z,3.47
2023-05-03T14:48:38.245Z,4.13
2023-05-03T14:51:05.763Z,4.20
2023-05-03T14:53:33.150Z,3.93
2023-05-03T14:56:00.296Z,3.80
2023-05-03T14:58:27.610Z,3.70
2023-05-03T15:00:54.759Z,3.60
2023-05-03T15:03:21.897Z,4.13
2023-05-03T15:05:49.774Z,4.90
2023-05-03T15:08:17.802Z,3.97
2023-05-03T15:10:45.019Z,3.73
2023-05-03T15:13:13.015Z,4.23
2023-05-03T15:15:41.236Z,4.00
2023-05-03T15:18:09.252Z,3.60
2023-05-03T15:20:36.727Z,3.63
2023-05-03T15:23:04.988Z,3.60
2023-05-03T15:25:32.398Z,4.40
2023-05-03T15:28:03.657Z,4.73
2023-05-03T15:30:31.578Z,4.07
2023-05-03T15:32:58.643Z,4.07
2023-05-03T15:35:26.015Z,4.17
2023-05-03T15:37:53.100Z,4.80
2023-05-03T15:40:22.373Z,4.37
2023-05-03T15:42:51.751Z,4.17
2023-05-03T15:45:19.170Z,3.97
2023-05-03T15:47:46.457Z,4.70
2023-05-03T15:50:13.911Z,4.00
2023-05-03T15:52:41.702Z,3.83
2023-05-03T15:55:09.457Z,5.03
2023-05-03T15:57:37.117Z,4.03
2023-05-03T16:00:13.208Z,4.37
2023-05-03T16:02:40.922Z,3.43
2023-05-03T16:05:08.688Z,3.90
2023-05-03T16:07:35.821Z,3.43
2023-05-03T16:10:03.114Z,4.13
2023-05-03T16:12:30.671Z,4.30
2023-05-03T16:14:57.813Z,4.20
2023-05-03T16:17:25.620Z,4.00
2023-05-03T16:19:52.930Z,3.83
2023-05-03T16:22:19.978Z,3.90
2023-05-03T16:24:47.269Z,4.40
2023-05-03T16:27:14.442Z,4.63
2023-05-03T16:29:41.553Z,4.00
2023-05-03T16:32:09.839Z,4.50
2023-05-03T16:34:37.714Z,3.87
2023-05-03T16:37:04.829Z,3.83
2023-05-03T16:39:32.427Z,3.47
2023-05-03T16:41:59.474Z,3.87
2023-05-03T16:44:26.786Z,3.23
2023-05-03T16:46:53.953Z,3.60
2023-05-03T16:49:21.594Z,3.50
2023-05-03T16:51:48.730Z,3.73
2023-05-03T16:54:16.846Z,3.37
2023-05-03T16:56:44.786Z,3.73
2023-05-03T16:59:11.905Z,3.50
2023-05-03T17:01:39.071Z,3.67
2023-05-03T17:04:06.662Z,3.63
2023-05-03T17:06:33.971Z,3.80
2023-05-03T17:09:01.112Z,3.53
2023-05-03T17:11:28.509Z,3.67
2023-05-03T17:13:55.907Z,4.00
2023-05-03T17:16:23.396Z,3.83
2023-05-03T17:18:50.572Z,3.93
2023-05-03T17:21:18.896Z,3.50
2023-05-03T17:23:46.197Z,3.40
2023-05-03T17:26:14.056Z,3.87
2023-05-03T17:28:41.499Z,3.37
2023-05-03T17:31:08.750Z,3.23
2023-05-03T17:33:36.183Z,3.63
2023-05-03T17:36:07.203Z,2.83
2023-05-03T17:38:34.839Z,3.20
2023-05-03T17:41:06.433Z,3.47
2023-05-03T17:43:34.306Z,3.10
2023-05-03T17:46:12.035Z,3.70
2023-05-03T17:48:40.049Z,3.43
2023-05-03T17:51:07.873Z,3.70
2023-05-03T17:53:35.290Z,3.30
2023-05-03T17:56:02.389Z,2.80
2023-05-03T17:58:29.498Z,2.80
2023-05-03T18:00:57.608Z,2.70
2023-05-03T18:03:25.975Z,2.87
2023-05-03T18:05:53.429Z,2.83
2023-05-03T18:08:20.645Z,5.10
2023-05-03T18:10:47.971Z,3.80
2023-05-03T18:13:15.260Z,3.50
2023-05-03T18:15:42.684Z,3.70
2023-05-03T18:18:09.907Z,3.10
2023-05-03T18:20:37.405Z,5.00
2023-05-03T18:25:33.018Z,3.10
2023-05-03T18:28:01.209Z,3.30
2023-05-03T18:30:29.442Z,3.27
2023-05-03T18:32:56.949Z,3.57
2023-05-03T18:35:24.808Z,3.47
2023-05-03T18:37:53.198Z,3.10
2023-05-03T18:40:20.578Z,3.03
2023-05-03T18:42:48.003Z,3.10
2023-05-03T18:45:15.322Z,3.70
2023-05-03T18:47:42.613Z,3.53
2023-05-03T18:50:10.233Z,3.03
2023-05-03T18:52:37.426Z,3.00
2023-05-03T18:55:07.201Z,3.63
2023-05-03T18:57:34.447Z,3.03
2023-05-03T19:00:01.865Z,3.60
2023-05-03T19:02:30.662Z,3.17
2023-05-03T19:04:58.232Z,3.70
2023-05-03T19:07:25.660Z,3.17
2023-05-03T19:09:56.554Z,3.67
2023-05-03T19:12:23.954Z,3.87
2023-05-03T19:14:51.450Z,3.37
2023-05-03T19:17:18.654Z,3.37
2023-05-03T19:19:45.834Z,3.77
2023-05-03T19:22:12.995Z,3.40
2023-05-03T19:24:43.687Z,3.60
2023-05-03T19:27:11.794Z,3.43
2023-05-03T19:29:39.018Z,3.70
2023-05-03T19:32:06.442Z,3.27
2023-05-03T19:34:36.247Z,4.30
2023-05-03T19:37:03.437Z,3.20
2023-05-03T19:39:32.811Z,3.90
2023-05-03T19:42:00.360Z,3.83
2023-05-03T19:44:30.776Z,4.10
2023-05-03T19:46:58.053Z,4.63
2023-05-03T19:49:25.756Z,3.60
2023-05-03T19:51:54.122Z,3.50
2023-05-03T19:54:21.688Z,3.70
2023-05-03T19:56:50.189Z,3.40
2023-05-03T19:59:18.316Z,3.50
2023-05-03T20:01:45.727Z,3.03
2023-05-03T20:04:13.234Z,3.33
2023-05-03T20:06:40.510Z,3.13
2023-05-03T20:09:07.817Z,3.10
2023-05-03T20:11:35.114Z,3.60
2023-05-03T20:14:02.348Z,3.57
2023-05-03T20:16:32.882Z,3.13
2023-05-03T20:19:00.296Z,3.80
2023-05-03T20:21:27.402Z,2.90
2023-05-03T20:23:54.681Z,3.30
2023-05-03T20:26:21.991Z,3.43
2023-05-03T20:28:49.386Z,3.60
2023-05-03T20:31:17.576Z,3.20
2023-05-03T20:33:45.106Z,3.53
2023-05-03T20:36:14.266Z,3.00
2023-05-03T20:38:41.744Z,3.30
2023-05-03T20:41:09.372Z,3.20
2023-05-03T20:43:37.183Z,3.40
2023-05-03T20:46:04.433Z,3.30
2023-05-03T20:48:32.044Z,3.50
2023-05-03T20:51:00.867Z,4.03
2023-05-03T20:53:28.102Z,2.90
2023-05-03T20:55:56.533Z,3.27
2023-05-03T20:58:24.046Z,3.80
2023-05-03T21:00:57.605Z,3.57
2023-05-03T21:03:25.843Z,3.30
2023-05-03T21:05:54.007Z,3.10
2023-05-03T21:08:21.240Z,3.40
2023-05-03T21:10:49.122Z,3.30
2023-05-03T21:13:16.698Z,3.50
2023-05-03T21:15:43.918Z,2.83
2023-05-03T21:18:11.602Z,4.03
2023-05-03T21:20:38.952Z,3.57
2023-05-03T21:23:07.615Z,3.20
2023-05-03T21:25:34.775Z,3.17
2023-05-03T21:28:02.042Z,3.73
2023-05-03T21:30:29.506Z,3.37
2023-05-03T21:32:57.060Z,2.70
2023-05-03T21:35:25.624Z,3.47
2023-05-03T21:37:52.919Z,2.93
2023-05-03T21:40:22.054Z,3.43
2023-05-03T21:42:50.073Z,3.20
2023-05-03T21:45:17.698Z,3.87
2023-05-03T21:47:44.968Z,2.90
2023-05-03T21:50:12.849Z,3.40
2023-05-03T21:52:40.316Z,3.70
2023-05-03T21:55:07.624Z,3.37
2023-05-03T21:57:34.771Z,3.70
2023-05-03T22:00:02.390Z,3.70
2023-05-03T22:02:29.725Z,2.77
2023-05-03T22:04:56.871Z,3.00
2023-05-03T22:07:24.077Z,3.70
2023-05-03T22:09:51.285Z,2.97
2023-05-03T22:12:23.922Z,3.20
2023-05-03T22:14:51.842Z,3.83
2023-05-03T22:17:19.003Z,3.40
2023-05-03T22:19:46.241Z,3.23
2023-05-03T22:22:13.369Z,3.83
2023-05-03T22:24:41.179Z,3.20
2023-05-03T22:27:08.361Z,4.70
2023-05-03T22:29:35.457Z,3.63
2023-05-03T22:32:03.106Z,3.10
2023-05-03T22:34:30.317Z,3.80
2023-05-03T22:36:57.342Z,3.80
2023-05-03T22:39:24.464Z,3.53
2023-05-03T22:41:51.594Z,3.10
2023-05-03T22:44:18.760Z,3.63
2023-05-03T22:46:45.910Z,3.50
2023-05-03T22:49:13.877Z,3.40
2023-05-03T22:51:41.627Z,3.80
2023-05-03T22:54:08.788Z,3.97
2023-05-03T22:56:35.980Z,4.20
2023-05-03T22:59:03.076Z,4.60
2023-05-03T23:01:30.364Z,4.30
2023-05-03T23:03:58.209Z,4.27
2023-05-03T23:06:25.745Z,4.30
2023-05-03T23:08:52.916Z,4.20
2023-05-03T23:11:21.013Z,3.93
2023-05-03T23:13:48.165Z,4.17
2023-05-03T23:16:15.463Z,3.67
2023-05-03T23:18:42.987Z,4.10
2023-05-03T23:21:10.202Z,4.00
2023-05-03T23:23:37.407Z,3.50
2023-05-03T23:26:04.535Z,3.93
2023-05-03T23:28:32.759Z,3.87
2023-05-03T23:31:00.436Z,4.63
2023-05-03T23:33:28.140Z,3.63
2023-05-03T23:35:55.531Z,4.00
2023-05-03T23:38:22.732Z,3.77
2023-05-03T23:40:49.856Z,4.33
2023-05-03T23:43:16.931Z,4.23
2023-05-03T23:45:44.076Z,4.80
2023-05-03T23:48:11.256Z,3.87
2023-05-03T23:50:38.372Z,3.87
2023-05-03T23:53:05.607Z,3.90
2023-05-03T23:55:33.107Z,4.40
2023-05-03T23:58:00.327Z,3.83
